createdAt,value
2018-03-09T00:02:02.283Z,0.80
2018-03-09T00:04:31.660Z,1.20
2018-03-09T00:07:01.005Z,1.00
2018-03-09T00:09:31.171Z,1.20
2018-03-09T00:12:00.661Z,1.53
2018-03-09T00:14:30.020Z,0.70
2018-03-09T00:16:59.379Z,1.17
2018-03-09T00:19:28.783Z,1.17
2018-03-09T00:21:58.068Z,1.10
2018-03-09T00:24:27.718Z,1.10
2018-03-09T00:26:57.105Z,1.00
2018-03-09T00:29:26.412Z,1.13
2018-03-09T00:31:55.970Z,1.03
2018-03-09T00:34:26.023Z,1.23
2018-03-09T00:36:55.640Z,1.20
2018-03-09T00:39:24.911Z,1.40
2018-03-09T00:41:54.930Z,1.10
2018-03-09T00:44:24.593Z,0.87
2018-03-09T00:46:53.876Z,1.50
2018-03-09T00:49:23.117Z,1.43
2018-03-09T00:51:53.221Z,1.00
2018-03-09T00:54:22.548Z,1.27
2018-03-09T00:56:52.594Z,1.60
2018-03-09T00:59:21.882Z,1.43
2018-03-09T01:01:51.145Z,1.17
2018-03-09T01:04:20.448Z,1.10
2018-03-09T01:06:49.726Z,1.30
2018-03-09T01:09:19.137Z,0.90
2018-03-09T01:11:48.428Z,1.40
2018-03-09T01:14:17.973Z,1.30
2018-03-09T01:16:47.299Z,1.00
2018-03-09T01:19:16.573Z,1.57
2018-03-09T01:21:45.855Z,1.30
2018-03-09T01:24:15.164Z,1.57
2018-03-09T01:26:44.701Z,1.57
2018-03-09T01:29:14.833Z,1.77
2018-03-09T01:31:44.896Z,1.80
2018-03-09T01:34:14.130Z,1.50
2018-03-09T01:36:44.179Z,1.30
2018-03-09T01:39:14.197Z,1.37
2018-03-09T01:41:43.527Z,1.47
2018-03-09T01:44:12.821Z,1.23
2018-03-09T01:46:42.102Z,1.30
2018-03-09T01:49:11.377Z,2.07
2018-03-09T01:51:40.624Z,1.40
2018-03-09T01:54:09.902Z,1.97
2018-03-09T01:56:39.162Z,2.00
2018-03-09T01:59:08.470Z,1.60
2018-03-09T02:01:37.696Z,1.50
2018-03-09T02:04:07.347Z,2.73
2018-03-09T02:06:37.000Z,2.10
2018-03-09T02:09:06.252Z,2.07
2018-03-09T02:11:35.750Z,2.30
2018-03-09T02:14:05.218Z,2.30
2018-03-09T02:16:34.717Z,2.00
2018-03-09T02:19:04.063Z,1.63
2018-03-09T02:21:33.337Z,2.30
2018-03-09T02:24:02.616Z,2.43
2018-03-09T02:26:31.866Z,2.40
2018-03-09T02:29:01.121Z,2.00
2018-03-09T02:31:30.410Z,2.80
2018-03-09T02:33:59.671Z,2.40
2018-03-09T02:36:28.938Z,2.70
2018-03-09T02:38:58.164Z,2.87
2018-03-09T02:41:27.552Z,2.00
2018-03-09T02:43:56.819Z,2.53
2018-03-09T02:46:26.089Z,2.50
2018-03-09T02:48:55.408Z,2.23
2018-03-09T02:51:24.627Z,3.30
2018-03-09T02:53:53.902Z,3.90
2018-03-09T02:56:23.167Z,2.47
2018-03-09T02:58:52.466Z,3.30
2018-03-09T03:01:21.755Z,3.70
2018-03-09T03:03:51.432Z,2.20
2018-03-09T03:06:20.707Z,3.30
2018-03-09T03:08:50.140Z,3.33
2018-03-09T03:11:19.378Z,2.97
2018-03-09T03:13:48.626Z,2.80
2018-03-09T03:16:17.882Z,3.50
2018-03-09T03:18:47.170Z,3.10
2018-03-09T03:21:17.230Z,3.67
2018-03-09T03:23:46.507Z,3.20
2018-03-09T03:26:15.781Z,3.53
2018-03-09T03:28:45.012Z,3.20
2018-03-09T03:31:14.297Z,2.80
2018-03-09T03:33:44.396Z,2.80
2018-03-09T03:36:13.624Z,2.67
2018-03-09T03:38:43.764Z,2.87
2018-03-09T03:41:13.000Z,2.90
2018-03-09T03:43:42.718Z,2.70
2018-03-09T03:46:12.177Z,2.80
2018-03-09T03:48:42.202Z,3.20
2018-03-09T03:51:11.426Z,3.00
2018-03-09T03:53:40.744Z,3.40
2018-03-09T03:56:10.022Z,3.20
2018-03-09T03:58:39.346Z,2.23
2018-03-09T04:01:08.640Z,2.77
2018-03-09T04:03:37.948Z,3.50
2018-03-09T04:06:07.220Z,3.20
2018-03-09T04:08:37.206Z,2.93
2018-03-09T04:11:06.466Z,2.40
2018-03-09T04:13:35.710Z,3.57
2018-03-09T04:16:04.975Z,3.87
2018-03-09T04:18:35.017Z,3.27
2018-03-09T04:21:04.328Z,2.97
2018-03-09T04:23:33.521Z,3.57
2018-03-09T04:26:07.055Z,3.43
2018-03-09T04:28:36.299Z,3.27
2018-03-09T04:31:05.561Z,2.63
2018-03-09T04:33:35.132Z,3.97
2018-03-09T04:36:04.500Z,3.23
2018-03-09T04:38:33.779Z,2.63
2018-03-09T04:41:03.044Z,3.80
2018-03-09T04:43:32.301Z,3.63
2018-03-09T04:46:01.537Z,3.13
2018-03-09T04:48:30.813Z,3.40
2018-03-09T04:51:00.095Z,3.67
2018-03-09T04:53:29.375Z,3.77
2018-03-09T04:55:58.654Z,3.30
2018-03-09T04:58:27.997Z,3.50
2018-03-09T05:00:57.305Z,4.27
2018-03-09T05:03:26.646Z,3.40
2018-03-09T05:05:56.646Z,3.60
2018-03-09T05:08:25.943Z,3.17
2018-03-09T05:10:55.546Z,3.67
2018-03-09T05:13:24.886Z,3.57
2018-03-09T05:15:54.134Z,3.30
2018-03-09T05:18:23.436Z,3.40
2018-03-09T05:20:52.823Z,3.30
2018-03-09T05:23:22.118Z,3.23
2018-03-09T05:25:51.379Z,3.47
2018-03-09T05:28:21.422Z,3.07
2018-03-09T05:30:50.755Z,3.50
2018-03-09T05:33:20.154Z,3.97
2018-03-09T05:35:49.460Z,4.13
2018-03-09T05:38:18.743Z,3.70
2018-03-09T05:40:48.041Z,3.00
2018-03-09T05:43:17.319Z,4.03
2018-03-09T05:45:46.594Z,3.43
2018-03-09T05:48:16.611Z,4.00
2018-03-09T05:50:46.118Z,3.63
2018-03-09T05:53:15.459Z,4.13
2018-03-09T05:55:44.722Z,3.67
2018-03-09T05:58:14.022Z,4.57
2018-03-09T06:00:43.269Z,3.47
2018-03-09T06:03:12.541Z,3.77
2018-03-09T06:05:42.590Z,4.10
2018-03-09T06:08:11.937Z,3.63
2018-03-09T06:10:41.463Z,3.90
2018-03-09T06:13:11.623Z,5.30
2018-03-09T06:15:40.932Z,3.80
2018-03-09T06:18:10.546Z,3.70
2018-03-09T06:20:39.877Z,3.73
2018-03-09T06:23:09.122Z,3.80
2018-03-09T06:25:38.377Z,2.93
2018-03-09T06:28:07.838Z,4.57
2018-03-09T06:30:37.588Z,3.53
2018-03-09T06:33:06.981Z,3.60
2018-03-09T06:35:36.935Z,4.00
2018-03-09T06:38:06.248Z,3.73
2018-03-09T06:40:35.594Z,3.83
2018-03-09T06:43:05.675Z,3.80
2018-03-09T06:45:35.119Z,3.97
2018-03-09T06:48:04.402Z,4.87
2018-03-09T06:50:34.041Z,3.23
2018-03-09T06:53:03.311Z,3.20
2018-03-09T06:55:32.579Z,4.37
2018-03-09T06:58:01.824Z,3.07
2018-03-09T07:00:31.099Z,3.67
2018-03-09T07:03:01.118Z,3.50
2018-03-09T07:05:30.434Z,3.33
2018-03-09T07:07:59.665Z,3.77
2018-03-09T07:10:28.987Z,3.83
2018-03-09T07:12:58.230Z,4.37
2018-03-09T07:15:27.533Z,3.50
2018-03-09T07:17:56.772Z,2.73
2018-03-09T07:20:26.020Z,2.63
2018-03-09T07:22:55.342Z,4.00
2018-03-09T07:25:24.594Z,3.43
2018-03-09T07:27:53.853Z,3.33
2018-03-09T07:30:23.079Z,3.40
2018-03-09T07:32:52.330Z,3.20
2018-03-09T07:35:22.301Z,4.00
2018-03-09T07:37:51.559Z,11.97
2018-03-09T07:40:20.818Z,4.73
2018-03-09T07:42:50.085Z,4.03
2018-03-09T07:45:19.332Z,4.23
2018-03-09T07:47:48.598Z,3.70
2018-03-09T07:50:17.993Z,3.20
2018-03-09T07:52:47.349Z,3.53
2018-03-09T07:55:17.366Z,3.33
2018-03-09T07:57:46.632Z,2.80
2018-03-09T08:00:16.012Z,3.10
2018-03-09T08:02:45.901Z,3.03
2018-03-09T08:05:15.161Z,3.37
2018-03-09T08:07:44.578Z,3.80
2018-03-09T08:10:14.313Z,3.70
2018-03-09T08:12:43.599Z,3.10
2018-03-09T08:15:13.658Z,3.57
2018-03-09T08:17:42.894Z,3.43
2018-03-09T08:20:12.960Z,3.50
2018-03-09T08:22:42.352Z,4.67
2018-03-09T08:25:11.737Z,3.00
2018-03-09T08:27:40.966Z,3.80
2018-03-09T08:30:10.261Z,3.60
2018-03-09T08:32:39.535Z,4.10
2018-03-09T08:35:09.448Z,3.70
2018-03-09T08:37:38.826Z,3.80
2018-03-09T08:40:08.091Z,4.33
2018-03-09T08:42:37.338Z,3.50
2018-03-09T08:45:06.573Z,4.80
2018-03-09T08:47:35.886Z,4.47
2018-03-09T08:50:05.163Z,4.20
2018-03-09T08:52:34.446Z,4.10
2018-03-09T08:55:03.679Z,5.10
2018-03-09T08:57:33.678Z,5.87
2018-03-09T09:00:02.989Z,5.63
2018-03-09T09:02:32.406Z,6.30
2018-03-09T09:05:01.710Z,6.40
2018-03-09T09:07:30.988Z,5.50
2018-03-09T09:10:00.392Z,6.40
2018-03-09T09:12:29.631Z,6.03
2018-03-09T09:14:58.890Z,6.67
2018-03-09T09:17:28.889Z,5.87
2018-03-09T09:19:58.796Z,6.40
2018-03-09T09:22:28.056Z,6.50
2018-03-09T09:24:57.333Z,7.30
2018-03-09T09:27:27.442Z,5.80
2018-03-09T09:29:56.658Z,6.90
2018-03-09T09:32:25.917Z,7.97
2018-03-09T09:34:55.198Z,7.20
2018-03-09T09:37:24.686Z,6.30
2018-03-09T09:39:54.749Z,7.07
2018-03-09T09:42:24.001Z,6.70
2018-03-09T09:44:53.247Z,6.67
2018-03-09T09:47:22.556Z,7.33
2018-03-09T09:49:51.895Z,7.23
2018-03-09T09:52:21.153Z,7.00
2018-03-09T09:54:50.407Z,5.80
2018-03-09T09:57:19.668Z,6.33
2018-03-09T09:59:49.024Z,6.70
2018-03-09T10:02:18.269Z,6.97
2018-03-09T10:04:47.529Z,5.80
2018-03-09T10:07:16.819Z,6.67
2018-03-09T10:09:46.085Z,7.00
2018-03-09T10:12:15.374Z,6.10
2018-03-09T10:14:44.627Z,7.07
2018-03-09T10:17:13.869Z,7.37
2018-03-09T10:19:43.100Z,8.07
2018-03-09T10:22:13.160Z,7.20
2018-03-09T10:24:42.438Z,7.53
2018-03-09T10:27:11.764Z,6.90
2018-03-09T10:29:41.060Z,7.37
2018-03-09T10:32:10.332Z,7.90
2018-03-09T10:34:39.746Z,8.27
2018-03-09T10:37:10.058Z,8.43
2018-03-09T10:39:40.090Z,8.53
2018-03-09T10:42:09.362Z,8.33
2018-03-09T10:44:38.639Z,7.67
2018-03-09T10:47:07.891Z,7.93
2018-03-09T10:49:37.912Z,7.93
2018-03-09T10:52:07.196Z,9.67
2018-03-09T10:54:36.487Z,8.27
2018-03-09T10:57:05.758Z,8.93
2018-03-09T10:59:35.039Z,9.40
2018-03-09T11:02:04.272Z,9.47
2018-03-09T11:04:33.564Z,8.70
2018-03-09T11:07:02.862Z,9.27
2018-03-09T11:09:32.217Z,9.77
2018-03-09T11:12:01.457Z,10.00
2018-03-09T11:14:30.754Z,10.53
2018-03-09T11:17:00.010Z,10.87
2018-03-09T11:19:29.527Z,10.07
2018-03-09T11:21:58.894Z,10.60
2018-03-09T11:24:28.159Z,9.60
2018-03-09T11:26:57.412Z,9.77
2018-03-09T11:29:26.723Z,9.00
2018-03-09T11:31:56.017Z,10.40
2018-03-09T11:34:25.272Z,10.40
2018-03-09T11:36:54.577Z,11.10
2018-03-09T11:39:23.872Z,10.30
2018-03-09T11:41:53.203Z,9.40
2018-03-09T11:44:22.600Z,10.80
2018-03-09T11:46:51.922Z,10.17
2018-03-09T11:49:25.530Z,9.73
2018-03-09T11:51:54.773Z,11.50
2018-03-09T11:54:25.558Z,9.43
2018-03-09T11:56:55.052Z,9.77
2018-03-09T11:59:24.320Z,9.77
2018-03-09T12:01:53.639Z,10.00
2018-03-09T12:04:22.925Z,10.43
2018-03-09T12:06:52.232Z,11.13
2018-03-09T12:09:21.673Z,10.73
2018-03-09T12:11:50.964Z,11.60
2018-03-09T12:14:20.994Z,10.20
2018-03-09T12:16:50.260Z,9.70
2018-03-09T12:19:19.604Z,10.63
2018-03-09T12:21:48.892Z,8.60
2018-03-09T12:24:18.207Z,8.30
2018-03-09T12:26:47.495Z,8.60
2018-03-09T12:29:16.795Z,8.00
2018-03-09T12:31:46.127Z,8.50
2018-03-09T12:34:15.409Z,12.17
2018-03-09T12:36:44.711Z,8.80
2018-03-09T12:39:14.050Z,9.50
2018-03-09T12:41:43.379Z,8.17
2018-03-09T12:44:12.649Z,8.90
2018-03-09T12:46:41.906Z,9.03
2018-03-09T12:49:11.236Z,9.33
2018-03-09T12:51:40.664Z,9.80
2018-03-09T12:54:09.974Z,10.10
2018-03-09T12:56:39.288Z,8.57
2018-03-09T12:59:10.341Z,8.10
2018-03-09T13:01:41.800Z,8.93
2018-03-09T13:04:11.569Z,9.23
2018-03-09T13:06:41.613Z,9.80
2018-03-09T13:09:11.722Z,39.17
2018-03-09T13:11:41.351Z,10.13
2018-03-09T13:14:12.198Z,14.27
2018-03-09T13:16:41.726Z,15.20
2018-03-09T13:19:11.017Z,20.90
2018-03-09T13:21:40.363Z,21.20
2018-03-09T13:24:09.567Z,9.70
2018-03-09T13:26:38.954Z,10.60
2018-03-09T13:29:08.254Z,11.03
2018-03-09T13:31:37.558Z,15.23
2018-03-09T13:34:06.888Z,12.83
2018-03-09T13:36:36.188Z,55.23
2018-03-09T13:39:05.543Z,65.27
2018-03-09T13:41:34.804Z,17.40
2018-03-09T13:44:05.104Z,23.23
2018-03-09T13:46:34.391Z,10.57
2018-03-09T13:49:03.704Z,11.03
2018-03-09T13:51:32.995Z,11.70
2018-03-09T13:54:02.296Z,13.40
2018-03-09T13:56:31.558Z,16.03
2018-03-09T13:59:00.832Z,10.70
2018-03-09T14:01:30.146Z,13.00
2018-03-09T14:03:59.430Z,11.10
2018-03-09T14:06:28.769Z,13.37
2018-03-09T14:08:58.031Z,12.87
2018-03-09T14:11:27.477Z,13.00
2018-03-09T14:13:57.500Z,11.70
2018-03-09T14:16:26.777Z,12.07
2018-03-09T14:18:56.075Z,13.33
2018-03-09T14:21:25.362Z,12.10
2018-03-09T14:23:54.669Z,22.30
2018-03-09T14:26:23.941Z,12.60
2018-03-09T14:28:53.210Z,11.93
2018-03-09T14:31:22.503Z,12.20
2018-03-09T14:33:51.788Z,12.77
2018-03-09T14:36:21.839Z,13.83
2018-03-09T14:38:51.117Z,13.43
2018-03-09T14:41:20.396Z,12.90
2018-03-09T14:43:49.654Z,14.87
2018-03-09T14:46:18.944Z,13.50
2018-03-09T14:48:48.206Z,13.27
2018-03-09T14:51:18.233Z,13.83
2018-03-09T14:53:47.528Z,12.50
2018-03-09T14:56:16.819Z,13.83
2018-03-09T14:58:46.127Z,13.87
2018-03-09T15:01:15.447Z,13.80
2018-03-09T15:03:44.782Z,13.70
2018-03-09T15:06:14.058Z,13.40
2018-03-09T15:08:43.637Z,15.77
2018-03-09T15:11:12.917Z,15.33
2018-03-09T15:13:42.164Z,15.67
2018-03-09T15:16:11.653Z,15.07
2018-03-09T15:18:41.421Z,13.70
2018-03-09T15:21:10.702Z,15.30
2018-03-09T15:23:39.951Z,16.10
2018-03-09T15:26:09.258Z,18.40
2018-03-09T15:28:38.531Z,17.90
2018-03-09T15:31:07.798Z,16.60
2018-03-09T15:33:37.068Z,13.60
2018-03-09T15:36:06.386Z,16.00
2018-03-09T15:38:35.690Z,15.20
2018-03-09T15:41:05.012Z,14.03
2018-03-09T15:43:34.297Z,16.10
2018-03-09T15:46:03.724Z,16.30
2018-03-09T15:48:33.167Z,14.37
2018-03-09T15:51:02.444Z,15.20
2018-03-09T15:53:31.711Z,13.90
2018-03-09T15:56:00.952Z,15.97
2018-03-09T15:58:30.230Z,15.77
2018-03-09T16:00:59.578Z,14.27
2018-03-09T16:03:29.074Z,13.73
2018-03-09T16:05:58.387Z,14.90
2018-03-09T16:08:27.712Z,13.63
2018-03-09T16:10:58.110Z,13.40
2018-03-09T16:13:27.432Z,16.57
2018-03-09T16:15:56.784Z,12.57
2018-03-09T16:18:26.078Z,15.07
2018-03-09T16:20:55.422Z,14.90
2018-03-09T16:23:24.657Z,14.07
2018-03-09T16:25:54.193Z,15.67
2018-03-09T16:28:24.549Z,15.20
2018-03-09T16:30:53.867Z,15.50
2018-03-09T16:33:23.178Z,15.90
2018-03-09T16:35:52.421Z,14.07
2018-03-09T16:38:21.672Z,15.40
2018-03-09T16:40:50.954Z,15.37
2018-03-09T16:43:20.241Z,15.00
2018-03-09T16:45:49.491Z,15.70
2018-03-09T16:48:18.867Z,14.40
2018-03-09T16:50:48.160Z,14.80
2018-03-09T16:53:17.412Z,17.00
2018-03-09T16:55:47.457Z,15.50
2018-03-09T16:58:16.734Z,15.17
2018-03-09T17:00:45.984Z,14.93
2018-03-09T17:03:15.521Z,16.50
2018-03-09T17:05:45.559Z,18.63
2018-03-09T17:08:15.098Z,16.87
2018-03-09T17:10:44.490Z,17.90
2018-03-09T17:13:14.643Z,19.37
2018-03-09T17:15:43.985Z,18.17
2018-03-09T17:18:13.280Z,15.70
2018-03-09T17:20:42.690Z,16.67
2018-03-09T17:23:11.979Z,14.20
2018-03-09T17:25:41.283Z,15.00
2018-03-09T17:28:10.900Z,16.57
2018-03-09T17:30:40.169Z,15.47
2018-03-09T17:33:10.305Z,15.17
2018-03-09T17:35:39.631Z,16.10
2018-03-09T17:38:08.909Z,12.67
2018-03-09T17:40:38.201Z,13.53
2018-03-09T17:43:08.239Z,13.47
2018-03-09T17:45:38.290Z,10.77
2018-03-09T17:48:07.543Z,12.33
2018-03-09T17:50:37.075Z,11.70
2018-03-09T17:53:07.373Z,12.63
2018-03-09T17:55:36.673Z,12.23
2018-03-09T17:58:05.939Z,11.90
2018-03-09T18:00:35.202Z,10.27
2018-03-09T18:03:05.275Z,13.00
2018-03-09T18:05:34.530Z,10.43
2018-03-09T18:08:03.835Z,11.37
2018-03-09T18:10:33.351Z,11.00
2018-03-09T18:13:02.652Z,11.50
2018-03-09T18:15:31.954Z,11.63
2018-03-09T18:18:01.298Z,11.20
2018-03-09T18:20:30.649Z,14.37
2018-03-09T18:23:00.858Z,11.87
2018-03-09T18:25:30.230Z,8.43
2018-03-09T18:27:59.526Z,8.47
2018-03-09T18:30:29.044Z,8.50
2018-03-09T18:32:58.346Z,10.00
2018-03-09T18:35:27.625Z,9.00
2018-03-09T18:37:56.929Z,9.00
2018-03-09T18:40:26.279Z,10.30
2018-03-09T18:42:56.350Z,11.20
2018-03-09T18:45:25.645Z,10.87
2018-03-09T18:47:55.005Z,8.73
2018-03-09T18:50:24.285Z,8.20
2018-03-09T18:52:54.383Z,10.30
2018-03-09T18:55:23.670Z,9.57
2018-03-09T18:57:53.021Z,8.83
2018-03-09T19:00:22.353Z,8.60
2018-03-09T19:02:51.745Z,9.37
2018-03-09T19:05:21.078Z,8.40
2018-03-09T19:07:50.584Z,8.20
2018-03-09T19:10:19.863Z,10.00
2018-03-09T19:12:49.140Z,8.33
2018-03-09T19:15:19.346Z,7.67
2018-03-09T19:17:49.439Z,9.10
2018-03-09T19:20:18.760Z,10.40
2018-03-09T19:22:48.094Z,8.47
2018-03-09T19:25:17.417Z,7.63
2018-03-09T19:27:46.773Z,7.50
2018-03-09T19:30:16.069Z,8.93
2018-03-09T19:32:46.145Z,7.43
2018-03-09T19:35:15.415Z,7.67
2018-03-09T19:37:44.689Z,7.20
2018-03-09T19:40:14.050Z,7.90
2018-03-09T19:42:43.440Z,6.20
2018-03-09T19:45:12.755Z,6.67
2018-03-09T19:47:42.050Z,8.47
2018-03-09T19:50:11.343Z,8.03
2018-03-09T19:52:40.602Z,7.07
2018-03-09T19:55:09.884Z,8.90
2018-03-09T19:57:39.199Z,7.40
2018-03-09T20:00:08.463Z,6.97
2018-03-09T20:02:37.783Z,7.67
2018-03-09T20:05:07.068Z,7.50
2018-03-09T20:07:36.360Z,7.30
2018-03-09T20:10:05.813Z,9.60
2018-03-09T20:12:35.079Z,7.97
2018-03-09T20:15:04.344Z,8.13
2018-03-09T20:17:33.640Z,10.20
2018-03-09T20:20:02.939Z,9.70
2018-03-09T20:22:32.208Z,8.10
2018-03-09T20:25:01.579Z,9.43
2018-03-09T20:27:30.899Z,7.37
2018-03-09T20:30:00.272Z,11.07
2018-03-09T20:32:29.777Z,9.27
2018-03-09T20:34:59.230Z,10.23
2018-03-09T20:37:28.581Z,9.50
2018-03-09T20:39:57.830Z,9.40
2018-03-09T20:42:27.056Z,9.60
2018-03-09T20:44:56.378Z,10.37
2018-03-09T20:47:25.776Z,10.53
2018-03-09T20:49:55.084Z,10.20
2018-03-09T20:52:24.351Z,10.93
2018-03-09T20:54:53.682Z,10.00
2018-03-09T20:57:23.016Z,8.93
2018-03-09T20:59:52.273Z,10.53
2018-03-09T21:02:22.368Z,10.60
2018-03-09T21:04:51.653Z,9.47
2018-03-09T21:07:21.005Z,10.37
2018-03-09T21:09:50.270Z,10.67
2018-03-09T21:12:19.578Z,10.10
2018-03-09T21:14:49.691Z,10.20
2018-03-09T21:17:19.003Z,9.40
2018-03-09T21:19:48.262Z,9.20
2018-03-09T21:22:17.547Z,10.63
2018-03-09T21:24:46.812Z,11.17
2018-03-09T21:27:16.094Z,9.33
2018-03-09T21:29:46.236Z,10.30
2018-03-09T21:32:15.552Z,9.97
2018-03-09T21:34:45.008Z,11.07
2018-03-09T21:37:14.298Z,11.47
2018-03-09T21:39:43.615Z,10.30
2018-03-09T21:42:12.852Z,10.03
2018-03-09T21:44:42.142Z,9.03
2018-03-09T21:47:12.255Z,9.83
2018-03-09T21:49:41.551Z,10.60
2018-03-09T21:52:11.685Z,10.00
2018-03-09T21:54:40.977Z,9.77
2018-03-09T21:57:11.150Z,8.63
2018-03-09T21:59:41.836Z,9.53
2018-03-09T22:02:15.807Z,8.80
2018-03-09T22:04:45.724Z,9.63
2018-03-09T22:07:14.998Z,9.20
2018-03-09T22:09:44.286Z,14.43
2018-03-09T22:12:13.556Z,11.17
2018-03-09T22:14:43.607Z,9.90
2018-03-09T22:17:12.967Z,15.10
2018-03-09T22:19:42.235Z,14.67
2018-03-09T22:22:11.610Z,12.70
2018-03-09T22:24:40.842Z,12.20
2018-03-09T22:27:10.917Z,9.70
2018-03-09T22:29:40.160Z,12.20
2018-03-09T22:32:09.471Z,10.47
2018-03-09T22:34:38.743Z,10.23
2018-03-09T22:37:08.035Z,9.20
2018-03-09T22:39:37.424Z,9.40
2018-03-09T22:42:06.720Z,11.50
2018-03-09T22:44:36.141Z,9.50
2018-03-09T22:47:05.405Z,11.80
2018-03-09T22:49:34.707Z,12.10
2018-03-09T22:52:04.023Z,11.90
2018-03-09T22:54:33.251Z,11.03
2018-03-09T22:57:02.523Z,10.93
2018-03-09T22:59:31.805Z,10.50
2018-03-09T23:02:01.062Z,12.00
2018-03-09T23:04:30.344Z,12.63
2018-03-09T23:06:59.645Z,12.27
2018-03-09T23:09:28.900Z,10.30
2018-03-09T23:11:58.230Z,10.40
2018-03-09T23:14:27.510Z,10.57
2018-03-09T23:16:56.902Z,12.63
2018-03-09T23:19:26.193Z,11.23
2018-03-09T23:21:55.540Z,10.57
2018-03-09T23:24:25.614Z,11.13
2018-03-09T23:26:54.864Z,11.03
2018-03-09T23:29:24.137Z,12.07
2018-03-09T23:31:53.410Z,12.03
2018-03-09T23:34:22.688Z,10.87
2018-03-09T23:36:51.993Z,11.20
2018-03-09T23:39:21.264Z,9.70
2018-03-09T23:41:51.297Z,10.37
2018-03-09T23:44:20.561Z,9.90
2018-03-09T23:46:49.830Z,12.13
2018-03-09T23:49:19.117Z,12.00
2018-03-09T23:51:48.400Z,11.23
2018-03-09T23:54:17.662Z,12.57
2018-03-09T23:56:46.950Z,9.57
2018-03-09T23:59:16.200Z,11.33
